sensor_id;sensor_type;location;lat;lon;timestamp;pressure;altitude;pressure_sealevel;temperature;humidity
56825;BME280;42705;50.326;18.772;2023-03-13T00:04:50;98005.64;;;3.55;56.10
56825;BME280;42705;50.326;18.772;2023-03-13T00:10:12;97992.14;;;3.55;56.35
56825;BME280;42705;50.326;18.772;2023-03-13T00:15:34;97999.33;;;3.59;56.78
56825;BME280;42705;50.326;18.772;2023-03-13T00:21:00;97995.10;;;3.60;57.36
56825;BME280;42705;50.326;18.772;2023-03-13T00:26:24;97988.10;;;3.67;58.11
56825;BME280;42705;50.326;18.772;2023-03-13T00:31:46;97965.66;;;3.71;58.29
56825;BME280;42705;50.326;18.772;2023-03-13T00:37:08;97955.41;;;3.74;58.57
56825;BME280;42705;50.326;18.772;2023-03-13T00:42:30;97956.73;;;3.78;59.02
56825;BME280;42705;50.326;18.772;2023-03-13T00:47:52;97952.40;;;3.83;59.83
56825;BME280;42705;50.326;18.772;2023-03-13T00:53:14;97946.30;;;3.88;60.16
56825;BME280;42705;50.326;18.772;2023-03-13T00:58:38;97947.15;;;3.91;60.28
56825;BME280;42705;50.326;18.772;2023-03-13T01:04:06;97946.77;;;3.96;61.01
56825;BME280;42705;50.326;18.772;2023-03-13T01:09:28;97947.42;;;4.02;61.17
56825;BME280;42705;50.326;18.772;2023-03-13T01:14:50;97963.45;;;4.02;61.42
56825;BME280;42705;50.326;18.772;2023-03-13T01:20:12;97968.35;;;4.02;61.72
56825;BME280;42705;50.326;18.772;2023-03-13T01:25:37;97981.05;;;4.05;61.97
56825;BME280;42705;50.326;18.772;2023-03-13T01:31:12;97976.90;;;4.05;61.92
56825;BME280;42705;50.326;18.772;2023-03-13T01:36:35;97963.02;;;4.01;62.25
56825;BME280;42705;50.326;18.772;2023-03-13T01:41:58;97964.33;;;4.02;62.55
56825;BME280;42705;50.326;18.772;2023-03-13T01:47:20;97965.52;;;4.03;62.66
56825;BME280;42705;50.326;18.772;2023-03-13T01:53:05;97966.04;;;4.00;62.91
56825;BME280;42705;50.326;18.772;2023-03-13T01:58:28;97949.99;;;4.02;63.73
56825;BME280;42705;50.326;18.772;2023-03-13T02:03:51;97952.64;;;4.04;63.63
56825;BME280;42705;50.326;18.772;2023-03-13T02:09:18;97957.88;;;4.05;63.91
56825;BME280;42705;50.326;18.772;2023-03-13T02:14:44;97959.69;;;4.09;64.26
56825;BME280;42705;50.326;18.772;2023-03-13T02:20:09;97964.64;;;4.10;64.10
56825;BME280;42705;50.326;18.772;2023-03-13T02:25:50;97973.41;;;4.13;64.85
56825;BME280;42705;50.326;18.772;2023-03-13T02:31:15;97978.16;;;4.17;64.91
56825;BME280;42705;50.326;18.772;2023-03-13T02:36:38;97983.80;;;4.18;65.00
56825;BME280;42705;50.326;18.772;2023-03-13T02:42:02;97986.15;;;4.21;65.50
56825;BME280;42705;50.326;18.772;2023-03-13T02:47:25;97995.82;;;4.24;65.74
56825;BME280;42705;50.326;18.772;2023-03-13T02:52:55;97999.83;;;4.26;66.08
56825;BME280;42705;50.326;18.772;2023-03-13T02:58:23;97997.71;;;4.28;66.33
56825;BME280;42705;50.326;18.772;2023-03-13T03:03:45;97989.45;;;4.30;66.80
56825;BME280;42705;50.326;18.772;2023-03-13T03:09:07;97993.34;;;4.36;67.36
56825;BME280;42705;50.326;18.772;2023-03-13T03:14:30;97994.20;;;4.39;67.36
56825;BME280;42705;50.326;18.772;2023-03-13T03:19:52;97995.17;;;4.43;67.79
56825;BME280;42705;50.326;18.772;2023-03-13T03:25:15;97999.15;;;4.45;67.75
56825;BME280;42705;50.326;18.772;2023-03-13T03:30:37;98003.00;;;4.46;68.06
56825;BME280;42705;50.326;18.772;2023-03-13T03:36:01;98002.33;;;4.51;67.90
56825;BME280;42705;50.326;18.772;2023-03-13T03:41:24;98002.01;;;4.53;67.68
56825;BME280;42705;50.326;18.772;2023-03-13T03:46:47;97996.38;;;4.57;68.37
56825;BME280;42705;50.326;18.772;2023-03-13T03:52:09;97994.13;;;4.59;67.94
56825;BME280;42705;50.326;18.772;2023-03-13T03:57:33;97992.10;;;4.63;68.05
56825;BME280;42705;50.326;18.772;2023-03-13T04:02:56;97988.94;;;4.66;67.96
56825;BME280;42705;50.326;18.772;2023-03-13T04:08:19;97994.30;;;4.71;67.96
56825;BME280;42705;50.326;18.772;2023-03-13T04:13:41;97989.89;;;4.77;68.11
56825;BME280;42705;50.326;18.772;2023-03-13T04:19:04;97990.15;;;4.80;68.09
56825;BME280;42705;50.326;18.772;2023-03-13T04:24:26;97985.45;;;4.85;68.51
56825;BME280;42705;50.326;18.772;2023-03-13T04:29:48;97989.85;;;4.89;68.55
56825;BME280;42705;50.326;18.772;2023-03-13T04:35:32;97992.93;;;4.94;68.95
56825;BME280;42705;50.326;18.772;2023-03-13T04:41:03;97978.20;;;4.97;69.22
56825;BME280;42705;50.326;18.772;2023-03-13T04:46:41;97980.52;;;4.98;68.98
56825;BME280;42705;50.326;18.772;2023-03-13T04:52:22;97977.52;;;5.01;69.08
56825;BME280;42705;50.326;18.772;2023-03-13T04:57:44;97976.69;;;5.03;69.07
56825;BME280;42705;50.326;18.772;2023-03-13T05:03:32;97964.45;;;5.07;69.33
56825;BME280;42705;50.326;18.772;2023-03-13T05:09:23;97965.94;;;5.07;69.11
56825;BME280;42705;50.326;18.772;2023-03-13T05:15:06;97958.81;;;5.10;69.05
56825;BME280;42705;50.326;18.772;2023-03-13T05:20:40;97959.88;;;5.10;68.91
56825;BME280;42705;50.326;18.772;2023-03-13T05:26:38;97957.40;;;5.11;69.04
56825;BME280;42705;50.326;18.772;2023-03-13T05:32:22;97960.70;;;5.11;68.94
56825;BME280;42705;50.326;18.772;2023-03-13T05:37:50;97956.05;;;5.10;68.86
56825;BME280;42705;50.326;18.772;2023-03-13T05:43:35;97949.00;;;5.12;68.80
56825;BME280;42705;50.326;18.772;2023-03-13T05:49:05;97949.26;;;5.11;68.81
56825;BME280;42705;50.326;18.772;2023-03-13T05:54:28;97943.17;;;5.14;69.00
56825;BME280;42705;50.326;18.772;2023-03-13T06:00:09;97934.91;;;5.15;68.72
56825;BME280;42705;50.326;18.772;2023-03-13T06:05:57;97929.73;;;5.19;68.91
56825;BME280;42705;50.326;18.772;2023-03-13T06:11:40;97929.69;;;5.25;68.78
56825;BME280;42705;50.326;18.772;2023-03-13T06:17:04;97924.06;;;5.30;68.65
56825;BME280;42705;50.326;18.772;2023-03-13T06:22:25;97924.30;;;5.40;68.68
56825;BME280;42705;50.326;18.772;2023-03-13T06:27:49;97927.94;;;5.50;68.57
56825;BME280;42705;50.326;18.772;2023-03-13T06:33:11;97925.34;;;5.63;68.38
56825;BME280;42705;50.326;18.772;2023-03-13T06:38:33;97928.83;;;5.82;68.34
56825;BME280;42705;50.326;18.772;2023-03-13T06:43:55;97933.17;;;6.02;67.94
56825;BME280;42705;50.326;18.772;2023-03-13T06:49:17;97929.97;;;6.23;67.95
56825;BME280;42705;50.326;18.772;2023-03-13T06:54:39;97922.11;;;6.39;67.39
56825;BME280;42705;50.326;18.772;2023-03-13T07:00:01;97917.55;;;6.48;67.26
56825;BME280;42705;50.326;18.772;2023-03-13T07:05:22;97909.68;;;6.59;67.07
56825;BME280;42705;50.326;18.772;2023-03-13T07:10:44;97916.80;;;6.70;66.79
56825;BME280;42705;50.326;18.772;2023-03-13T07:16:11;97917.64;;;6.74;66.68
56825;BME280;42705;50.326;18.772;2023-03-13T07:21:33;97901.08;;;6.83;66.76
56825;BME280;42705;50.326;18.772;2023-03-13T07:26:55;97896.10;;;6.93;66.31
56825;BME280;42705;50.326;18.772;2023-03-13T07:32:50;97889.44;;;7.06;66.44
56825;BME280;42705;50.326;18.772;2023-03-13T07:38:27;97868.29;;;7.20;66.02
56825;BME280;42705;50.326;18.772;2023-03-13T07:43:49;97881.16;;;7.32;65.50
56825;BME280;42705;50.326;18.772;2023-03-13T07:49:11;97871.67;;;7.47;65.69
56825;BME280;42705;50.326;18.772;2023-03-13T07:54:32;97857.17;;;7.70;65.45
56825;BME280;42705;50.326;18.772;2023-03-13T07:59:54;97858.80;;;7.85;64.70
56825;BME280;42705;50.326;18.772;2023-03-13T08:05:16;97870.72;;;8.04;64.35
56825;BME280;42705;50.326;18.772;2023-03-13T08:10:38;97867.05;;;8.15;64.05
56825;BME280;42705;50.326;18.772;2023-03-13T08:16:12;97864.69;;;8.26;63.57
56825;BME280;42705;50.326;18.772;2023-03-13T08:21:36;97853.95;;;8.45;63.25
56825;BME280;42705;50.326;18.772;2023-03-13T08:26:58;97851.11;;;8.76;63.04
56825;BME280;42705;50.326;18.772;2023-03-13T08:32:20;97855.20;;;9.00;62.23
56825;BME280;42705;50.326;18.772;2023-03-13T08:37:42;97843.48;;;9.08;61.01
56825;BME280;42705;50.326;18.772;2023-03-13T08:43:04;97838.24;;;9.10;60.44
56825;BME280;42705;50.326;18.772;2023-03-13T08:48:26;97835.77;;;9.29;60.67
56825;BME280;42705;50.326;18.772;2023-03-13T08:53:48;97833.61;;;9.55;59.93
56825;BME280;42705;50.326;18.772;2023-03-13T08:59:11;97829.27;;;9.66;59.12
56825;BME280;42705;50.326;18.772;2023-03-13T09:04:33;97827.77;;;9.65;58.43
56825;BME280;42705;50.326;18.772;2023-03-13T09:09:54;97830.86;;;9.59;58.25
56825;BME280;42705;50.326;18.772;2023-03-13T09:15:16;97819.54;;;9.64;58.70
56825;BME280;42705;50.326;18.772;2023-03-13T09:20:38;97824.46;;;9.69;57.96
56825;BME280;42705;50.326;18.772;2023-03-13T09:26:00;97805.27;;;9.80;58.33
56825;BME280;42705;50.326;18.772;2023-03-13T09:31:25;97799.81;;;10.07;57.67
56825;BME280;42705;50.326;18.772;2023-03-13T09:36:47;97793.88;;;10.46;56.80
56825;BME280;42705;50.326;18.772;2023-03-13T09:42:14;97811.77;;;10.71;55.29
56825;BME280;42705;50.326;18.772;2023-03-13T09:47:47;97802.45;;;10.77;54.84
56825;BME280;42705;50.326;18.772;2023-03-13T09:53:19;97786.98;;;10.92;55.09
56825;BME280;42705;50.326;18.772;2023-03-13T09:58:53;97796.58;;;11.13;54.37
56825;BME280;42705;50.326;18.772;2023-03-13T10:09:39;97788.79;;;11.13;53.29
56825;BME280;42705;50.326;18.772;2023-03-13T10:15:33;97759.93;;;11.00;53.26
56825;BME280;42705;50.326;18.772;2023-03-13T10:21:03;97749.55;;;11.04;53.55
56825;BME280;42705;50.326;18.772;2023-03-13T10:26:35;97742.16;;;11.30;53.44
56825;BME280;42705;50.326;18.772;2023-03-13T10:32:05;97726.04;;;11.37;52.68
56825;BME280;42705;50.326;18.772;2023-03-13T10:37:41;97723.76;;;11.51;52.46
56825;BME280;42705;50.326;18.772;2023-03-13T10:43:18;97723.94;;;11.55;51.54
56825;BME280;42705;50.326;18.772;2023-03-13T10:48:41;97718.11;;;11.64;51.66
56825;BME280;42705;50.326;18.772;2023-03-13T10:54:23;97696.12;;;11.77;51.79
56825;BME280;42705;50.326;18.772;2023-03-13T10:59:50;97694.88;;;11.96;50.89
56825;BME280;42705;50.326;18.772;2023-03-13T11:10:59;97682.03;;;11.56;50.25
56825;BME280;42705;50.326;18.772;2023-03-13T11:16:28;97664.67;;;11.37;51.12
56825;BME280;42705;50.326;18.772;2023-03-13T11:27:48;97626.95;;;11.61;51.09
56825;BME280;42705;50.326;18.772;2023-03-13T11:56:36;97599.15;;;11.82;49.85
56825;BME280;42705;50.326;18.772;2023-03-13T12:02:14;97597.02;;;11.89;49.52
56825;BME280;42705;50.326;18.772;2023-03-13T12:07:54;97583.83;;;11.81;49.32
56825;BME280;42705;50.326;18.772;2023-03-13T12:13:22;97580.16;;;11.70;49.01
56825;BME280;42705;50.326;18.772;2023-03-13T12:18:48;97588.93;;;11.52;48.65
56825;BME280;42705;50.326;18.772;2023-03-13T12:29:55;97583.28;;;11.20;48.51
56825;BME280;42705;50.326;18.772;2023-03-13T12:35:29;97579.33;;;11.06;48.93
56825;BME280;42705;50.326;18.772;2023-03-13T12:41:07;97571.07;;;10.98;49.24
56825;BME280;42705;50.326;18.772;2023-03-13T12:46:45;97580.89;;;10.88;49.76
56825;BME280;42705;50.326;18.772;2023-03-13T12:58:29;97576.84;;;10.62;50.71
56825;BME280;42705;50.326;18.772;2023-03-13T13:04:21;97564.28;;;10.45;51.65
56825;BME280;42705;50.326;18.772;2023-03-13T13:15:32;97537.52;;;10.28;52.61
56825;BME280;42705;50.326;18.772;2023-03-13T13:48:27;97517.45;;;10.09;52.90
56825;BME280;42705;50.326;18.772;2023-03-13T13:53:57;97523.46;;;10.07;52.74
56825;BME280;42705;50.326;18.772;2023-03-13T13:59:26;97523.02;;;10.05;52.46
56825;BME280;42705;50.326;18.772;2023-03-13T14:15:36;97508.80;;;9.89;53.50
56825;BME280;42705;50.326;18.772;2023-03-13T14:21:05;97501.04;;;9.79;54.41
56825;BME280;42705;50.326;18.772;2023-03-13T14:26:41;97504.87;;;9.69;54.96
56825;BME280;42705;50.326;18.772;2023-03-13T14:32:04;97502.23;;;9.62;55.66
56825;BME280;42705;50.326;18.772;2023-03-13T14:37:35;97489.17;;;9.59;56.15
56825;BME280;42705;50.326;18.772;2023-03-13T14:42:59;97495.70;;;9.60;56.06
56825;BME280;42705;50.326;18.772;2023-03-13T14:48:22;97487.83;;;9.63;56.26
56825;BME280;42705;50.326;18.772;2023-03-13T14:54:01;97479.64;;;9.68;56.15
56825;BME280;42705;50.326;18.772;2023-03-13T14:59:24;97480.45;;;9.72;56.08
56825;BME280;42705;50.326;18.772;2023-03-13T15:04:59;97473.41;;;9.78;55.99
56825;BME280;42705;50.326;18.772;2023-03-13T15:10:34;97483.34;;;9.87;55.60
56825;BME280;42705;50.326;18.772;2023-03-13T15:16:19;97470.00;;;9.98;55.37
56825;BME280;42705;50.326;18.772;2023-03-13T15:21:43;97463.55;;;10.08;55.35
56825;BME280;42705;50.326;18.772;2023-03-13T15:27:14;97459.56;;;10.12;55.44
56825;BME280;42705;50.326;18.772;2023-03-13T15:32:37;97468.82;;;10.19;55.18
56825;BME280;42705;50.326;18.772;2023-03-13T15:38:00;97453.19;;;10.24;55.33
56825;BME280;42705;50.326;18.772;2023-03-13T15:43:22;97460.34;;;10.25;55.28
56825;BME280;42705;50.326;18.772;2023-03-13T15:48:45;97470.83;;;10.27;55.25
56825;BME280;42705;50.326;18.772;2023-03-13T15:54:07;97466.31;;;10.30;55.10
56825;BME280;42705;50.326;18.772;2023-03-13T15:59:28;97462.80;;;10.32;54.84
56825;BME280;42705;50.326;18.772;2023-03-13T16:04:50;97455.19;;;10.29;54.96
56825;BME280;42705;50.326;18.772;2023-03-13T16:10:21;97453.69;;;10.29;54.87
56825;BME280;42705;50.326;18.772;2023-03-13T16:15:44;97447.63;;;10.28;55.25
56825;BME280;42705;50.326;18.772;2023-03-13T16:21:22;97437.78;;;10.27;55.23
56825;BME280;42705;50.326;18.772;2023-03-13T16:26:45;97425.02;;;10.28;55.17
56825;BME280;42705;50.326;18.772;2023-03-13T16:32:10;97424.08;;;10.27;55.00
56825;BME280;42705;50.326;18.772;2023-03-13T16:37:33;97420.60;;;10.25;55.24
56825;BME280;42705;50.326;18.772;2023-03-13T16:42:55;97414.41;;;10.22;55.44
56825;BME280;42705;50.326;18.772;2023-03-13T16:48:17;97410.62;;;10.20;55.30
56825;BME280;42705;50.326;18.772;2023-03-13T16:53:40;97409.89;;;10.17;56.04
56825;BME280;42705;50.326;18.772;2023-03-13T16:59:06;97412.45;;;10.16;55.82
56825;BME280;42705;50.326;18.772;2023-03-13T17:04:31;97419.71;;;10.15;55.80
56825;BME280;42705;50.326;18.772;2023-03-13T17:09:53;97401.71;;;10.13;55.93
56825;BME280;42705;50.326;18.772;2023-03-13T17:15:15;97397.34;;;10.09;56.03
56825;BME280;42705;50.326;18.772;2023-03-13T17:20:37;97406.34;;;10.05;56.17
56825;BME280;42705;50.326;18.772;2023-03-13T17:25:59;97406.38;;;9.99;56.35
56825;BME280;42705;50.326;18.772;2023-03-13T17:31:23;97395.23;;;9.94;56.62
56825;BME280;42705;50.326;18.772;2023-03-13T17:36:45;97395.39;;;9.89;56.79
56825;BME280;42705;50.326;18.772;2023-03-13T17:42:08;97386.29;;;9.86;56.72
56825;BME280;42705;50.326;18.772;2023-03-13T17:47:30;97375.89;;;9.80;56.87
56825;BME280;42705;50.326;18.772;2023-03-13T17:52:53;97370.31;;;9.75;57.10
56825;BME280;42705;50.326;18.772;2023-03-13T17:58:15;97372.55;;;9.70;56.89
56825;BME280;42705;50.326;18.772;2023-03-13T18:03:37;97359.52;;;9.65;56.85
56825;BME280;42705;50.326;18.772;2023-03-13T18:09:01;97347.52;;;9.63;57.25
56825;BME280;42705;50.326;18.772;2023-03-13T18:14:28;97346.07;;;9.62;57.03
56825;BME280;42705;50.326;18.772;2023-03-13T18:19:50;97341.59;;;9.63;57.19
56825;BME280;42705;50.326;18.772;2023-03-13T18:25:13;97335.30;;;9.66;56.93
56825;BME280;42705;50.326;18.772;2023-03-13T18:30:35;97326.81;;;9.68;56.90
56825;BME280;42705;50.326;18.772;2023-03-13T18:35:59;97323.82;;;9.64;56.94
56825;BME280;42705;50.326;18.772;2023-03-13T18:41:22;97312.30;;;9.60;56.63
56825;BME280;42705;50.326;18.772;2023-03-13T18:46:44;97311.04;;;9.57;56.85
56825;BME280;42705;50.326;18.772;2023-03-13T18:52:09;97307.73;;;9.57;56.59
56825;BME280;42705;50.326;18.772;2023-03-13T18:57:31;97304.77;;;9.54;56.78
56825;BME280;42705;50.326;18.772;2023-03-13T19:02:53;97312.09;;;9.47;56.69
56825;BME280;42705;50.326;18.772;2023-03-13T19:08:15;97309.23;;;9.40;56.80
56825;BME280;42705;50.326;18.772;2023-03-13T19:13:37;97301.06;;;9.37;56.85
56825;BME280;42705;50.326;18.772;2023-03-13T19:19:00;97298.30;;;9.35;57.06
56825;BME280;42705;50.326;18.772;2023-03-13T19:24:23;97287.83;;;9.33;57.08
56825;BME280;42705;50.326;18.772;2023-03-13T19:29:47;97277.38;;;9.32;57.20
56825;BME280;42705;50.326;18.772;2023-03-13T19:35:10;97276.39;;;9.30;57.24
56825;BME280;42705;50.326;18.772;2023-03-13T19:40:33;97275.02;;;9.28;57.27
56825;BME280;42705;50.326;18.772;2023-03-13T19:45:55;97277.95;;;9.26;57.27
56825;BME280;42705;50.326;18.772;2023-03-13T19:51:17;97271.27;;;9.29;57.16
56825;BME280;42705;50.326;18.772;2023-03-13T19:56:41;97267.05;;;9.31;56.96
56825;BME280;42705;50.326;18.772;2023-03-13T20:02:05;97260.95;;;9.34;56.67
56825;BME280;42705;50.326;18.772;2023-03-13T20:07:27;97247.98;;;9.42;55.91
56825;BME280;42705;50.326;18.772;2023-03-13T20:12:49;97238.41;;;9.48;55.65
56825;BME280;42705;50.326;18.772;2023-03-13T20:18:14;97243.52;;;9.56;55.18
56825;BME280;42705;50.326;18.772;2023-03-13T20:23:36;97237.71;;;9.60;54.93
56825;BME280;42705;50.326;18.772;2023-03-13T20:28:58;97236.32;;;9.60;54.88
56825;BME280;42705;50.326;18.772;2023-03-13T20:34:20;97231.21;;;9.62;54.88
56825;BME280;42705;50.326;18.772;2023-03-13T20:39:42;97221.74;;;9.62;54.72
56825;BME280;42705;50.326;18.772;2023-03-13T20:45:05;97204.13;;;9.61;54.30
56825;BME280;42705;50.326;18.772;2023-03-13T20:50:29;97207.82;;;9.57;54.26
56825;BME280;42705;50.326;18.772;2023-03-13T20:55:51;97206.29;;;9.55;54.22
56825;BME280;42705;50.326;18.772;2023-03-13T21:01:14;97205.21;;;9.55;53.94
56825;BME280;42705;50.326;18.772;2023-03-13T21:06:36;97205.27;;;9.54;53.70
56825;BME280;42705;50.326;18.772;2023-03-13T21:11:59;97200.17;;;9.52;53.54
56825;BME280;42705;50.326;18.772;2023-03-13T21:17:21;97192.11;;;9.49;53.43
56825;BME280;42705;50.326;18.772;2023-03-13T21:22:43;97187.70;;;9.48;53.22
56825;BME280;42705;50.326;18.772;2023-03-13T21:28:06;97184.59;;;9.44;52.93
56825;BME280;42705;50.326;18.772;2023-03-13T21:33:28;97179.44;;;9.39;52.99
56825;BME280;42705;50.326;18.772;2023-03-13T21:38:50;97174.66;;;9.34;52.87
56825;BME280;42705;50.326;18.772;2023-03-13T21:44:11;97165.75;;;9.35;52.57
56825;BME280;42705;50.326;18.772;2023-03-13T21:49:33;97163.55;;;9.36;52.60
56825;BME280;42705;50.326;18.772;2023-03-13T21:54:57;97146.60;;;9.36;52.41
56825;BME280;42705;50.326;18.772;2023-03-13T22:00:19;97137.45;;;9.35;52.50
56825;BME280;42705;50.326;18.772;2023-03-13T22:05:42;97119.16;;;9.35;52.49
56825;BME280;42705;50.326;18.772;2023-03-13T22:11:04;97103.81;;;9.36;51.74
56825;BME280;42705;50.326;18.772;2023-03-13T22:16:26;97093.06;;;9.34;52.21
56825;BME280;42705;50.326;18.772;2023-03-13T22:21:48;97100.19;;;9.30;51.97
56825;BME280;42705;50.326;18.772;2023-03-13T22:27:12;97098.02;;;9.29;52.10
56825;BME280;42705;50.326;18.772;2023-03-13T22:32:34;97089.54;;;9.29;51.96
56825;BME280;42705;50.326;18.772;2023-03-13T22:37:56;97076.49;;;9.27;52.15
56825;BME280;42705;50.326;18.772;2023-03-13T22:43:18;97060.91;;;9.27;52.19
56825;BME280;42705;50.326;18.772;2023-03-13T22:48:40;97063.64;;;9.28;52.11
56825;BME280;42705;50.326;18.772;2023-03-13T22:54:02;97075.98;;;9.30;52.21
56825;BME280;42705;50.326;18.772;2023-03-13T22:59:24;97081.34;;;9.31;52.37
56825;BME280;42705;50.326;18.772;2023-03-13T23:04:46;97067.79;;;9.30;52.06
56825;BME280;42705;50.326;18.772;2023-03-13T23:10:10;97060.66;;;9.30;52.15
56825;BME280;42705;50.326;18.772;2023-03-13T23:15:32;97058.73;;;9.32;52.16
56825;BME280;42705;50.326;18.772;2023-03-13T23:20:54;97040.46;;;9.33;52.14
56825;BME280;42705;50.326;18.772;2023-03-13T23:26:16;97021.58;;;9.34;52.03
56825;BME280;42705;50.326;18.772;2023-03-13T23:31:38;97012.66;;;9.32;51.99
56825;BME280;42705;50.326;18.772;2023-03-13T23:37:00;97024.30;;;9.30;52.22
56825;BME280;42705;50.326;18.772;2023-03-13T23:42:22;97013.31;;;9.31;52.33
56825;BME280;42705;50.326;18.772;2023-03-13T23:47:45;97006.48;;;9.36;52.20
56825;BME280;42705;50.326;18.772;2023-03-13T23:53:07;96989.11;;;9.41;52.66
56825;BME280;42705;50.326;18.772;2023-03-13T23:58:28;96964.67;;;9.41;52.54
